sensor_id;sensor_type;location;lat;lon;timestamp;pressure;altitude;pressure_sealevel;temperature;humidity
70053;BME280;57398;52.032;4.376;2023-03-14T00:02:34;99079.88;;;9.52;nan
70053;BME280;57398;52.032;4.376;2023-03-14T00:05:24;99074.44;;;9.54;nan
70053;BME280;57398;52.032;4.376;2023-03-14T00:08:12;99070.56;;;9.51;nan
70053;BME280;57398;52.032;4.376;2023-03-14T00:11:05;99053.66;;;9.43;nan
70053;BME280;57398;52.032;4.376;2023-03-14T00:13:53;99055.75;;;9.41;nan
70053;BME280;57398;52.032;4.376;2023-03-14T00:16:41;99069.72;;;9.40;nan
70053;BME280;57398;52.032;4.376;2023-03-14T00:19:32;99083.75;;;9.44;nan
70053;BME280;57398;52.032;4.376;2023-03-14T00:22:21;99075.69;;;9.41;nan
70053;BME280;57398;52.032;4.376;2023-03-14T00:25:10;99077.50;;;9.35;nan
70053;BME280;57398;52.032;4.376;2023-03-14T00:27:59;99083.97;;;9.33;nan
70053;BME280;57398;52.032;4.376;2023-03-14T00:30:47;99079.56;;;9.33;nan
70053;BME280;57398;52.032;4.376;2023-03-14T00:33:36;99081.63;;;9.31;nan
70053;BME280;57398;52.032;4.376;2023-03-14T00:36:24;99088.31;;;9.27;nan
70053;BME280;57398;52.032;4.376;2023-03-14T00:39:14;99080.00;;;9.20;nan
70053;BME280;57398;52.032;4.376;2023-03-14T00:42:03;99091.94;;;9.21;nan
70053;BME280;57398;52.032;4.376;2023-03-14T00:44:51;99091.16;;;9.20;nan
70053;BME280;57398;52.032;4.376;2023-03-14T00:47:39;99098.91;;;9.15;nan
70053;BME280;57398;52.032;4.376;2023-03-14T00:50:32;99103.84;;;9.17;nan
70053;BME280;57398;52.032;4.376;2023-03-14T00:53:20;99101.72;;;9.14;nan
70053;BME280;57398;52.032;4.376;2023-03-14T00:56:11;99105.88;;;9.10;nan
70053;BME280;57398;52.032;4.376;2023-03-14T00:58:59;99106.91;;;9.14;nan
70053;BME280;57398;52.032;4.376;2023-03-14T01:01:48;99110.31;;;9.19;nan
70053;BME280;57398;52.032;4.376;2023-03-14T01:04:36;99108.72;;;9.13;nan
70053;BME280;57398;52.032;4.376;2023-03-14T01:07:26;99111.34;;;9.18;nan
70053;BME280;57398;52.032;4.376;2023-03-14T01:10:14;99115.75;;;9.18;nan
70053;BME280;57398;52.032;4.376;2023-03-14T01:13:04;99105.91;;;9.15;nan
70053;BME280;57398;52.032;4.376;2023-03-14T01:15:52;99105.59;;;9.11;nan
70053;BME280;57398;52.032;4.376;2023-03-14T01:18:42;99098.38;;;9.13;nan
70053;BME280;57398;52.032;4.376;2023-03-14T01:21:32;99072.44;;;9.08;nan
70053;BME280;57398;52.032;4.376;2023-03-14T01:24:21;99060.25;;;9.09;nan
70053;BME280;57398;52.032;4.376;2023-03-14T01:27:09;99060.03;;;9.10;nan
70053;BME280;57398;52.032;4.376;2023-03-14T01:30:00;99061.31;;;9.13;nan
70053;BME280;57398;52.032;4.376;2023-03-14T01:32:49;99073.75;;;9.11;nan
70053;BME280;57398;52.032;4.376;2023-03-14T01:35:37;99084.41;;;9.14;nan
70053;BME280;57398;52.032;4.376;2023-03-14T01:38:25;99090.88;;;9.17;nan
70053;BME280;57398;52.032;4.376;2023-03-14T01:41:15;99092.94;;;9.15;nan
70053;BME280;57398;52.032;4.376;2023-03-14T01:44:04;99098.91;;;9.15;nan
70053;BME280;57398;52.032;4.376;2023-03-14T01:46:53;99082.81;;;9.13;nan
70053;BME280;57398;52.032;4.376;2023-03-14T01:49:43;99080.53;;;9.17;nan
70053;BME280;57398;52.032;4.376;2023-03-14T01:52:36;99081.50;;;9.11;nan
70053;BME280;57398;52.032;4.376;2023-03-14T01:55:25;99062.63;;;9.10;nan
70053;BME280;57398;52.032;4.376;2023-03-14T01:58:14;99076.34;;;9.11;nan
70053;BME280;57398;52.032;4.376;2023-03-14T02:01:04;99069.59;;;9.10;nan
70053;BME280;57398;52.032;4.376;2023-03-14T02:03:58;99073.75;;;9.11;nan
70053;BME280;57398;52.032;4.376;2023-03-14T02:06:51;99061.31;;;9.08;nan
70053;BME280;57398;52.032;4.376;2023-03-14T02:09:41;99058.44;;;9.09;nan
70053;BME280;57398;52.032;4.376;2023-03-14T02:12:30;99065.72;;;9.07;nan
70053;BME280;57398;52.032;4.376;2023-03-14T02:15:18;99043.94;;;9.08;nan
70053;BME280;57398;52.032;4.376;2023-03-14T02:18:06;99041.13;;;9.10;nan
70053;BME280;57398;52.032;4.376;2023-03-14T02:21:00;99045.50;;;9.09;nan
70053;BME280;57398;52.032;4.376;2023-03-14T02:23:55;99048.63;;;9.11;nan
70053;BME280;57398;52.032;4.376;2023-03-14T02:29:47;99026.81;;;8.97;100.00
70053;BME280;57398;52.032;4.376;2023-03-14T02:32:39;99043.16;;;9.02;100.00
70053;BME280;57398;52.032;4.376;2023-03-14T02:35:32;99048.06;;;8.99;100.00
70053;BME280;57398;52.032;4.376;2023-03-14T02:38:26;99045.75;;;9.02;100.00
70053;BME280;57398;52.032;4.376;2023-03-14T02:41:17;99038.97;;;8.96;100.00
70053;BME280;57398;52.032;4.376;2023-03-14T02:44:05;99052.44;;;8.93;100.00
70053;BME280;57398;52.032;4.376;2023-03-14T02:46:54;99050.34;;;8.95;100.00
70053;BME280;57398;52.032;4.376;2023-03-14T02:49:43;99043.38;;;8.96;100.00
70053;BME280;57398;52.032;4.376;2023-03-14T02:52:31;99032.50;;;8.94;100.00
70053;BME280;57398;52.032;4.376;2023-03-14T02:55:20;99023.41;;;8.91;100.00
70053;BME280;57398;52.032;4.376;2023-03-14T02:58:08;99023.94;;;8.93;100.00
70053;BME280;57398;52.032;4.376;2023-03-14T03:00:56;99030.44;;;8.96;100.00
70053;BME280;57398;52.032;4.376;2023-03-14T03:03:46;99019.56;;;8.99;100.00
70053;BME280;57398;52.032;4.376;2023-03-14T03:06:34;99019.31;;;9.00;100.00
70053;BME280;57398;52.032;4.376;2023-03-14T03:09:22;99022.94;;;8.99;100.00
70053;BME280;57398;52.032;4.376;2023-03-14T03:12:10;99012.34;;;9.06;100.00
70053;BME280;57398;52.032;4.376;2023-03-14T03:14:58;99011.31;;;9.07;100.00
70053;BME280;57398;52.032;4.376;2023-03-14T03:17:46;99014.66;;;9.02;100.00
70053;BME280;57398;52.032;4.376;2023-03-14T03:20:36;99026.56;;;9.04;100.00
70053;BME280;57398;52.032;4.376;2023-03-14T03:23:24;99013.13;;;9.07;100.00
70053;BME280;57398;52.032;4.376;2023-03-14T03:26:12;99013.38;;;9.05;100.00
70053;BME280;57398;52.032;4.376;2023-03-14T03:29:00;99014.69;;;9.08;100.00
70053;BME280;57398;52.032;4.376;2023-03-14T03:31:48;99021.16;;;9.05;100.00
70053;BME280;57398;52.032;4.376;2023-03-14T03:34:36;99017.00;;;9.04;100.00
70053;BME280;57398;52.032;4.376;2023-03-14T03:37:26;99011.28;;;9.02;100.00
70053;BME280;57398;52.032;4.376;2023-03-14T03:40:14;99014.41;;;9.04;100.00
70053;BME280;57398;52.032;4.376;2023-03-14T03:43:02;99011.28;;;9.02;100.00
70053;BME280;57398;52.032;4.376;2023-03-14T03:45:50;99012.06;;;9.02;100.00
70053;BME280;57398;52.032;4.376;2023-03-14T03:48:38;99019.31;;;9.00;100.00
70053;BME280;57398;52.032;4.376;2023-03-14T03:51:27;99016.97;;;8.99;100.00
70053;BME280;57398;52.032;4.376;2023-03-14T03:54:17;99022.16;;;8.99;100.00
70053;BME280;57398;52.032;4.376;2023-03-14T03:57:05;99031.44;;;8.90;100.00
70053;BME280;57398;52.032;4.376;2023-03-14T03:59:53;99031.34;;;8.74;100.00
70053;BME280;57398;52.032;4.376;2023-03-14T04:02:41;99034.13;;;8.63;100.00
70053;BME280;57398;52.032;4.376;2023-03-14T04:05:31;99033.09;;;8.64;100.00
70053;BME280;57398;52.032;4.376;2023-03-14T04:08:20;99030.44;;;8.53;100.00
70053;BME280;57398;52.032;4.376;2023-03-14T04:11:10;99042.06;;;8.51;100.00
70053;BME280;57398;52.032;4.376;2023-03-14T04:13:58;99037.41;;;8.48;100.00
70053;BME280;57398;52.032;4.376;2023-03-14T04:16:46;99037.34;;;8.43;100.00
70053;BME280;57398;52.032;4.376;2023-03-14T04:19:34;99133.00;;;8.37;100.00
70053;BME280;57398;52.032;4.376;2023-03-14T04:22:22;99125.19;;;8.32;100.00
70053;BME280;57398;52.032;4.376;2023-03-14T04:25:10;99128.28;;;8.29;100.00
70053;BME280;57398;52.032;4.376;2023-03-14T04:28:00;99146.31;;;8.24;100.00
70053;BME280;57398;52.032;4.376;2023-03-14T04:30:48;99155.41;;;8.27;100.00
70053;BME280;57398;52.032;4.376;2023-03-14T04:33:36;99152.31;;;8.25;100.00
70053;BME280;57398;52.032;4.376;2023-03-14T04:36:25;99150.69;;;8.18;100.00
70053;BME280;57398;52.032;4.376;2023-03-14T04:39:13;99155.91;;;8.24;100.00
70053;BME280;57398;52.032;4.376;2023-03-14T04:42:01;99157.16;;;8.21;100.00
70053;BME280;57398;52.032;4.376;2023-03-14T04:44:51;99158.13;;;8.15;100.00
70053;BME280;57398;52.032;4.376;2023-03-14T04:47:39;99165.13;;;8.14;100.00
70053;BME280;57398;52.032;4.376;2023-03-14T04:50:27;99167.69;;;8.14;100.00
70053;BME280;57398;52.032;4.376;2023-03-14T04:53:16;99170.53;;;8.13;100.00
70053;BME280;57398;52.032;4.376;2023-03-14T04:56:05;99177.50;;;8.12;100.00
70053;BME280;57398;52.032;4.376;2023-03-14T04:58:54;99174.69;;;8.14;100.00
70053;BME280;57398;52.032;4.376;2023-03-14T05:01:43;99185.75;;;8.09;100.00
70053;BME280;57398;52.032;4.376;2023-03-14T05:04:32;99200.78;;;8.12;100.00
70053;BME280;57398;52.032;4.376;2023-03-14T05:07:20;99198.16;;;8.07;100.00
70053;BME280;57398;52.032;4.376;2023-03-14T05:10:09;99214.19;;;8.09;100.00
70053;BME280;57398;52.032;4.376;2023-03-14T05:12:58;99235.19;;;8.13;100.00
70053;BME280;57398;52.032;4.376;2023-03-14T05:15:46;99229.50;;;8.11;100.00
70053;BME280;57398;52.032;4.376;2023-03-14T05:18:36;99256.66;;;7.91;100.00
70053;BME280;57398;52.032;4.376;2023-03-14T05:21:24;99275.19;;;7.66;100.00
70053;BME280;57398;52.032;4.376;2023-03-14T05:24:12;99278.66;;;7.38;100.00
70053;BME280;57398;52.032;4.376;2023-03-14T05:27:00;99283.25;;;7.19;100.00
70053;BME280;57398;52.032;4.376;2023-03-14T05:29:48;99291.69;;;6.98;100.00
70053;BME280;57398;52.032;4.376;2023-03-14T05:32:36;99299.81;;;6.89;100.00
70053;BME280;57398;52.032;4.376;2023-03-14T05:35:26;99318.38;;;6.75;100.00
70053;BME280;57398;52.032;4.376;2023-03-14T05:38:14;99333.97;;;6.68;100.00
70053;BME280;57398;52.032;4.376;2023-03-14T05:41:02;99335.44;;;6.64;100.00
70053;BME280;57398;52.032;4.376;2023-03-14T05:43:50;99345.13;;;6.57;100.00
70053;BME280;57398;52.032;4.376;2023-03-14T05:46:38;99346.28;;;6.49;100.00
70053;BME280;57398;52.032;4.376;2023-03-14T05:49:26;99348.84;;;6.49;100.00
70053;BME280;57398;52.032;4.376;2023-03-14T05:52:16;99368.03;;;6.53;100.00
70053;BME280;57398;52.032;4.376;2023-03-14T05:55:05;99377.44;;;6.47;100.00
70053;BME280;57398;52.032;4.376;2023-03-14T05:57:53;99384.63;;;6.45;100.00
70053;BME280;57398;52.032;4.376;2023-03-14T06:00:41;99395.84;;;6.39;100.00
70053;BME280;57398;52.032;4.376;2023-03-14T06:03:29;99397.88;;;6.37;100.00
70053;BME280;57398;52.032;4.376;2023-03-14T06:06:17;99407.63;;;6.35;100.00
70053;BME280;57398;52.032;4.376;2023-03-14T06:09:07;99422.84;;;6.37;100.00
70053;BME280;57398;52.032;4.376;2023-03-14T06:11:55;99431.06;;;6.34;100.00
70053;BME280;57398;52.032;4.376;2023-03-14T06:14:43;99440.69;;;6.26;100.00
70053;BME280;57398;52.032;4.376;2023-03-14T06:17:31;99448.75;;;6.18;100.00
70053;BME280;57398;52.032;4.376;2023-03-14T06:20:19;99460.66;;;6.19;100.00
70053;BME280;57398;52.032;4.376;2023-03-14T06:23:08;99470.19;;;6.19;100.00
70053;BME280;57398;52.032;4.376;2023-03-14T06:25:57;99463.22;;;6.07;100.00
70053;BME280;57398;52.032;4.376;2023-03-14T06:28:46;99479.78;;;6.00;100.00
70053;BME280;57398;52.032;4.376;2023-03-14T06:31:34;99481.13;;;6.02;100.00
70053;BME280;57398;52.032;4.376;2023-03-14T06:34:22;99498.19;;;6.03;100.00
70053;BME280;57398;52.032;4.376;2023-03-14T06:37:11;99499.16;;;6.02;100.00
70053;BME280;57398;52.032;4.376;2023-03-14T06:39:59;99509.06;;;6.05;100.00
70053;BME280;57398;52.032;4.376;2023-03-14T06:42:48;99519.38;;;6.05;100.00
70053;BME280;57398;52.032;4.376;2023-03-14T06:45:36;99534.94;;;6.11;100.00
70053;BME280;57398;52.032;4.376;2023-03-14T06:48:24;99538.31;;;6.11;100.00
70053;BME280;57398;52.032;4.376;2023-03-14T06:51:15;99558.06;;;6.17;100.00
70053;BME280;57398;52.032;4.376;2023-03-14T06:54:04;99564.91;;;6.12;100.00
70053;BME280;57398;52.032;4.376;2023-03-14T06:56:52;99576.31;;;6.16;100.00
70053;BME280;57398;52.032;4.376;2023-03-14T06:59:41;99592.59;;;6.16;100.00
70053;BME280;57398;52.032;4.376;2023-03-14T07:02:29;99596.16;;;6.15;100.00
70053;BME280;57398;52.032;4.376;2023-03-14T07:05:28;99608.06;;;6.16;100.00
70053;BME280;57398;52.032;4.376;2023-03-14T07:08:17;99605.03;;;6.19;100.00
70053;BME280;57398;52.032;4.376;2023-03-14T07:11:05;99618.28;;;6.23;100.00
70053;BME280;57398;52.032;4.376;2023-03-14T07:13:54;99633.97;;;6.21;100.00
70053;BME280;57398;52.032;4.376;2023-03-14T07:16:43;99640.03;;;6.27;100.00
70053;BME280;57398;52.032;4.376;2023-03-14T07:19:31;99656.41;;;6.21;100.00
70053;BME280;57398;52.032;4.376;2023-03-14T07:22:20;99671.31;;;6.19;100.00
70053;BME280;57398;52.032;4.376;2023-03-14T07:25:08;99681.25;;;6.15;100.00
70053;BME280;57398;52.032;4.376;2023-03-14T07:27:58;99687.34;;;6.02;100.00
70053;BME280;57398;52.032;4.376;2023-03-14T07:30:47;99703.13;;;5.94;100.00
70053;BME280;57398;52.032;4.376;2023-03-14T07:33:36;99711.09;;;5.86;100.00
70053;BME280;57398;52.032;4.376;2023-03-14T07:36:24;99720.75;;;5.72;100.00
70053;BME280;57398;52.032;4.376;2023-03-14T07:39:12;99742.13;;;5.54;100.00
70053;BME280;57398;52.032;4.376;2023-03-14T07:42:00;99765.53;;;5.28;100.00
70053;BME280;57398;52.032;4.376;2023-03-14T07:44:48;99762.25;;;5.14;100.00
70053;BME280;57398;52.032;4.376;2023-03-14T07:47:37;99786.22;;;5.14;100.00
70053;BME280;57398;52.032;4.376;2023-03-14T07:50:26;99790.97;;;5.11;100.00
70053;BME280;57398;52.032;4.376;2023-03-14T07:53:15;99804.31;;;5.01;100.00
70053;BME280;57398;52.032;4.376;2023-03-14T07:56:04;99829.47;;;4.92;100.00
70053;BME280;57398;52.032;4.376;2023-03-14T07:58:52;99836.88;;;4.82;100.00
70053;BME280;57398;52.032;4.376;2023-03-14T08:01:40;99848.56;;;4.78;100.00
70053;BME280;57398;52.032;4.376;2023-03-14T08:04:28;99867.56;;;4.83;100.00
70053;BME280;57398;52.032;4.376;2023-03-14T08:07:18;99862.63;;;4.75;100.00
70053;BME280;57398;52.032;4.376;2023-03-14T08:10:07;99878.66;;;4.71;100.00
70053;BME280;57398;52.032;4.376;2023-03-14T08:12:57;99894.69;;;4.73;100.00
70053;BME280;57398;52.032;4.376;2023-03-14T08:15:47;99908.16;;;4.68;100.00
70053;BME280;57398;52.032;4.376;2023-03-14T08:18:36;99918.41;;;4.81;100.00
70053;BME280;57398;52.032;4.376;2023-03-14T08:21:24;99935.84;;;4.73;100.00
70053;BME280;57398;52.032;4.376;2023-03-14T08:24:13;99944.59;;;4.65;100.00
70053;BME280;57398;52.032;4.376;2023-03-14T08:27:02;99951.31;;;4.59;100.00
70053;BME280;57398;52.032;4.376;2023-03-14T08:29:50;99982.97;;;4.60;100.00
70053;BME280;57398;52.032;4.376;2023-03-14T08:32:38;99992.28;;;4.54;100.00
70053;BME280;57398;52.032;4.376;2023-03-14T08:35:27;99990.28;;;4.23;100.00
70053;BME280;57398;52.032;4.376;2023-03-14T08:38:15;99994.44;;;4.44;100.00
70053;BME280;57398;52.032;4.376;2023-03-14T08:41:05;99997.00;;;4.77;100.00
70053;BME280;57398;52.032;4.376;2023-03-14T08:43:53;99979.13;;;4.96;100.00
70053;BME280;57398;52.032;4.376;2023-03-14T08:46:41;99966.84;;;5.04;100.00
70053;BME280;57398;52.032;4.376;2023-03-14T08:49:29;99962.00;;;5.28;100.00
70053;BME280;57398;52.032;4.376;2023-03-14T08:52:21;99959.19;;;5.36;100.00
70053;BME280;57398;52.032;4.376;2023-03-14T08:55:10;99960.56;;;5.39;100.00
70053;BME280;57398;52.032;4.376;2023-03-14T08:57:59;99948.03;;;5.49;100.00
70053;BME280;57398;52.032;4.376;2023-03-14T09:00:47;99935.78;;;5.44;100.00
70053;BME280;57398;52.032;4.376;2023-03-14T09:03:36;99924.91;;;5.74;100.00
70053;BME280;57398;52.032;4.376;2023-03-14T09:06:24;99908.03;;;5.78;100.00
70053;BME280;57398;52.032;4.376;2023-03-14T09:09:12;99903.50;;;5.74;100.00
70053;BME280;57398;52.032;4.376;2023-03-14T09:12:00;99908.22;;;5.77;100.00
70053;BME280;57398;52.032;4.376;2023-03-14T09:14:49;99897.13;;;5.76;100.00
70053;BME280;57398;52.032;4.376;2023-03-14T09:17:37;99848.38;;;5.75;100.00
70053;BME280;57398;52.032;4.376;2023-03-14T09:20:26;99861.50;;;5.73;100.00
70053;BME280;57398;52.032;4.376;2023-03-14T09:23:14;99862.31;;;5.67;100.00
70053;BME280;57398;52.032;4.376;2023-03-14T09:26:02;99890.19;;;5.45;100.00
70053;BME280;57398;52.032;4.376;2023-03-14T09:28:50;99907.88;;;5.41;100.00
70053;BME280;57398;52.032;4.376;2023-03-14T09:31:40;99951.22;;;4.99;100.00
70053;BME280;57398;52.032;4.376;2023-03-14T09:34:28;99974.09;;;4.56;100.00
70053;BME280;57398;52.032;4.376;2023-03-14T09:37:16;99994.84;;;4.48;100.00
70053;BME280;57398;52.032;4.376;2023-03-14T09:40:11;100003.75;;;4.58;100.00
70053;BME280;57398;52.032;4.376;2023-03-14T09:43:01;100001.28;;;4.97;100.00
70053;BME280;57398;52.032;4.376;2023-03-14T09:45:50;100009.94;;;5.29;100.00
70053;BME280;57398;52.032;4.376;2023-03-14T09:48:40;100021.31;;;5.60;100.00
70053;BME280;57398;52.032;4.376;2023-03-14T09:51:29;100017.72;;;5.61;100.00
70053;BME280;57398;52.032;4.376;2023-03-14T09:54:28;100021.25;;;5.73;100.00
70053;BME280;57398;52.032;4.376;2023-03-14T09:57:19;100036.28;;;5.76;100.00
70053;BME280;57398;52.032;4.376;2023-03-14T10:00:14;100028.56;;;5.76;100.00
70053;BME280;57398;52.032;4.376;2023-03-14T10:03:20;100053.06;;;5.99;100.00
70053;BME280;57398;52.032;4.376;2023-03-14T10:06:12;100040.78;;;5.87;100.00
70053;BME280;57398;52.032;4.376;2023-03-14T10:09:02;100037.06;;;5.77;100.00
70053;BME280;57398;52.032;4.376;2023-03-14T10:11:54;100056.09;;;5.82;100.00
70053;BME280;57398;52.032;4.376;2023-03-14T10:14:48;100065.03;;;6.18;100.00
70053;BME280;57398;52.032;4.376;2023-03-14T10:17:41;100068.06;;;6.40;100.00
70053;BME280;57398;52.032;4.376;2023-03-14T10:20:32;100073.50;;;5.87;100.00
70053;BME280;57398;52.032;4.376;2023-03-14T10:23:27;100082.44;;;5.91;100.00
70053;BME280;57398;52.032;4.376;2023-03-14T10:26:18;100097.03;;;6.11;100.00
70053;BME280;57398;52.032;4.376;2023-03-14T10:29:10;100084.69;;;6.19;100.00
70053;BME280;57398;52.032;4.376;2023-03-14T10:32:01;100094.44;;;6.11;100.00
70053;BME280;57398;52.032;4.376;2023-03-14T10:38:12;100106.72;;;6.15;100.00
70053;BME280;57398;52.032;4.376;2023-03-14T10:41:15;100116.88;;;6.03;100.00
70053;BME280;57398;52.032;4.376;2023-03-14T10:44:05;100126.59;;;6.08;100.00
70053;BME280;57398;52.032;4.376;2023-03-14T10:46:59;100140.69;;;6.05;100.00
70053;BME280;57398;52.032;4.376;2023-03-14T10:49:48;100153.09;;;6.22;100.00
70053;BME280;57398;52.032;4.376;2023-03-14T10:52:47;100158.81;;;6.31;100.00
70053;BME280;57398;52.032;4.376;2023-03-14T10:55:51;100153.53;;;6.19;100.00
70053;BME280;57398;52.032;4.376;2023-03-14T10:58:42;100176.34;;;6.08;100.00
70053;BME280;57398;52.032;4.376;2023-03-14T11:01:39;100195.59;;;6.06;100.00
70053;BME280;57398;52.032;4.376;2023-03-14T11:04:44;100201.72;;;6.57;100.00
70053;BME280;57398;52.032;4.376;2023-03-14T11:07:38;100218.31;;;7.06;100.00
70053;BME280;57398;52.032;4.376;2023-03-14T11:10:31;100212.75;;;7.02;100.00
70053;BME280;57398;52.032;4.376;2023-03-14T11:13:23;100220.25;;;7.10;100.00
70053;BME280;57398;52.032;4.376;2023-03-14T11:16:22;100230.78;;;7.09;100.00
70053;BME280;57398;52.032;4.376;2023-03-14T11:19:49;100239.16;;;7.04;100.00
70053;BME280;57398;52.032;4.376;2023-03-14T11:22:46;100251.25;;;7.10;100.00
70053;BME280;57398;52.032;4.376;2023-03-14T11:25:43;100264.56;;;6.76;100.00
70053;BME280;57398;52.032;4.376;2023-03-14T11:28:37;100275.44;;;6.84;100.00
70053;BME280;57398;52.032;4.376;2023-03-14T11:31:29;100276.09;;;6.73;100.00
70053;BME280;57398;52.032;4.376;2023-03-14T11:34:27;100276.16;;;6.98;100.00
70053;BME280;57398;52.032;4.376;2023-03-14T11:37:21;100294.75;;;6.75;100.00
70053;BME280;57398;52.032;4.376;2023-03-14T11:40:14;100307.56;;;6.95;100.00
70053;BME280;57398;52.032;4.376;2023-03-14T11:43:10;100308.56;;;6.94;100.00
70053;BME280;57398;52.032;4.376;2023-03-14T11:46:04;100302.00;;;6.91;100.00
70053;BME280;57398;52.032;4.376;2023-03-14T11:49:00;100320.47;;;6.95;100.00
70053;BME280;57398;52.032;4.376;2023-03-14T11:51:55;100336.81;;;6.82;100.00
70053;BME280;57398;52.032;4.376;2023-03-14T11:54:50;100339.66;;;7.12;100.00
70053;BME280;57398;52.032;4.376;2023-03-14T11:57:40;100349.41;;;7.10;100.00
70053;BME280;57398;52.032;4.376;2023-03-14T12:00:28;100357.19;;;7.04;100.00
70053;BME280;57398;52.032;4.376;2023-03-14T12:03:23;100373.56;;;7.23;100.00
70053;BME280;57398;52.032;4.376;2023-03-14T12:06:19;100353.41;;;7.00;100.00
70053;BME280;57398;52.032;4.376;2023-03-14T12:09:09;100329.31;;;7.12;100.00
70053;BME280;57398;52.032;4.376;2023-03-14T12:12:00;100373.56;;;7.54;100.00
70053;BME280;57398;52.032;4.376;2023-03-14T12:14:55;100374.56;;;7.22;100.00
70053;BME280;57398;52.032;4.376;2023-03-14T12:17:45;100373.13;;;7.26;100.00
70053;BME280;57398;52.032;4.376;2023-03-14T12:20:36;100380.69;;;7.59;100.00
70053;BME280;57398;52.032;4.376;2023-03-14T12:23:28;100392.19;;;7.95;100.00
70053;BME280;57398;52.032;4.376;2023-03-14T12:26:24;100390.38;;;7.39;100.00
70053;BME280;57398;52.032;4.376;2023-03-14T12:29:16;100409.41;;;7.06;100.00
70053;BME280;57398;52.032;4.376;2023-03-14T12:32:20;100411.13;;;7.19;100.00
70053;BME280;57398;52.032;4.376;2023-03-14T12:35:34;100414.44;;;6.94;100.00
70053;BME280;57398;52.032;4.376;2023-03-14T12:38:29;100417.81;;;6.88;100.00
70053;BME280;57398;52.032;4.376;2023-03-14T12:41:23;100433.16;;;6.76;100.00
70053;BME280;57398;52.032;4.376;2023-03-14T12:44:38;100443.88;;;7.31;100.00
70053;BME280;57398;52.032;4.376;2023-03-14T12:51:02;100448.38;;;6.98;100.00
70053;BME280;57398;52.032;4.376;2023-03-14T12:54:04;100456.16;;;6.71;100.00
70053;BME280;57398;52.032;4.376;2023-03-14T13:00:20;100478.78;;;6.82;100.00
70053;BME280;57398;52.032;4.376;2023-03-14T13:03:19;100484.00;;;6.69;100.00
70053;BME280;57398;52.032;4.376;2023-03-14T13:06:10;100502.66;;;6.51;100.00
70053;BME280;57398;52.032;4.376;2023-03-14T13:09:48;100513.41;;;6.35;100.00
70053;BME280;57398;52.032;4.376;2023-03-14T13:12:49;100522.31;;;6.59;100.00
70053;BME280;57398;52.032;4.376;2023-03-14T13:15:40;100533.63;;;6.58;100.00
70053;BME280;57398;52.032;4.376;2023-03-14T13:18:33;100541.97;;;6.60;100.00
70053;BME280;57398;52.032;4.376;2023-03-14T13:21:24;100538.38;;;6.54;100.00
70053;BME280;57398;52.032;4.376;2023-03-14T13:24:21;100552.88;;;6.88;100.00
70053;BME280;57398;52.032;4.376;2023-03-14T13:27:17;100568.56;;;6.54;100.00
70053;BME280;57398;52.032;4.376;2023-03-14T13:30:16;100564.00;;;6.42;100.00
70053;BME280;57398;52.032;4.376;2023-03-14T13:33:04;100572.69;;;6.15;100.00
70053;BME280;57398;52.032;4.376;2023-03-14T13:35:58;100566.16;;;6.25;100.00
70053;BME280;57398;52.032;4.376;2023-03-14T13:38:55;100588.41;;;6.33;100.00
70053;BME280;57398;52.032;4.376;2023-03-14T13:41:44;100584.59;;;6.29;100.00
70053;BME280;57398;52.032;4.376;2023-03-14T13:44:36;100584.59;;;6.29;100.00
70053;BME280;57398;52.032;4.376;2023-03-14T13:47:26;100589.72;;;6.16;100.00
70053;BME280;57398;52.032;4.376;2023-03-14T13:50:16;100599.47;;;6.07;100.00
70053;BME280;57398;52.032;4.376;2023-03-14T13:53:11;100613.75;;;6.10;100.00
70053;BME280;57398;52.032;4.376;2023-03-14T13:56:02;100609.41;;;6.17;100.00
70053;BME280;57398;52.032;4.376;2023-03-14T13:58:51;100610.72;;;5.99;100.00
70053;BME280;57398;52.032;4.376;2023-03-14T14:01:41;100616.72;;;6.20;100.00
70053;BME280;57398;52.032;4.376;2023-03-14T14:04:33;100626.03;;;6.07;100.00
70053;BME280;57398;52.032;4.376;2023-03-14T14:07:24;100640.53;;;6.15;100.00
70053;BME280;57398;52.032;4.376;2023-03-14T14:10:13;100641.81;;;5.91;100.00
70053;BME280;57398;52.032;4.376;2023-03-14T14:13:03;100649.00;;;5.96;100.00
70053;BME280;57398;52.032;4.376;2023-03-14T14:15:54;100665.66;;;6.00;100.00
70053;BME280;57398;52.032;4.376;2023-03-14T14:18:44;100668.72;;;5.82;100.00
70053;BME280;57398;52.032;4.376;2023-03-14T14:21:32;100664.31;;;6.11;100.00
70053;BME280;57398;52.032;4.376;2023-03-14T14:24:23;100679.63;;;6.19;100.00
70053;BME280;57398;52.032;4.376;2023-03-14T14:27:14;100685.94;;;6.10;100.00
70053;BME280;57398;52.032;4.376;2023-03-14T14:30:05;100702.00;;;6.05;100.00
70053;BME280;57398;52.032;4.376;2023-03-14T14:33:10;100692.09;;;6.15;100.00
70053;BME280;57398;52.032;4.376;2023-03-14T14:36:01;100699.13;;;6.28;100.00
70053;BME280;57398;52.032;4.376;2023-03-14T14:38:50;100698.28;;;6.21;100.00
70053;BME280;57398;52.032;4.376;2023-03-14T14:41:41;100712.28;;;6.53;100.00
70053;BME280;57398;52.032;4.376;2023-03-14T14:44:32;100713.78;;;6.21;100.00
70053;BME280;57398;52.032;4.376;2023-03-14T14:47:24;100715.56;;;6.27;100.00
70053;BME280;57398;52.032;4.376;2023-03-14T14:50:25;100730.50;;;6.38;100.00
70053;BME280;57398;52.032;4.376;2023-03-14T14:53:22;100751.97;;;6.04;100.00
70053;BME280;57398;52.032;4.376;2023-03-14T14:56:17;100750.06;;;6.19;100.00
70053;BME280;57398;52.032;4.376;2023-03-14T14:59:17;100752.63;;;6.19;100.00
70053;BME280;57398;52.032;4.376;2023-03-14T15:02:24;100752.19;;;6.50;100.00
70053;BME280;57398;52.032;4.376;2023-03-14T15:05:16;100769.19;;;6.38;100.00
70053;BME280;57398;52.032;4.376;2023-03-14T15:08:08;100768.47;;;6.51;100.00
70053;BME280;57398;52.032;4.376;2023-03-14T15:10:58;100803.03;;;6.22;100.00
70053;BME280;57398;52.032;4.376;2023-03-14T15:13:47;100788.25;;;6.37;100.00
70053;BME280;57398;52.032;4.376;2023-03-14T15:16:35;100801.44;;;6.14;100.00
70053;BME280;57398;52.032;4.376;2023-03-14T15:19:25;100799.56;;;6.01;100.00
70053;BME280;57398;52.032;4.376;2023-03-14T15:22:13;100804.59;;;5.88;100.00